createdAt,value
2022-09-25T00:01:29.165Z,8.73
2022-09-25T00:03:57.232Z,8.50
2022-09-25T00:06:26.813Z,6.03
2022-09-25T00:08:55.586Z,4.60
2022-09-25T00:11:27.634Z,7.43
2022-09-25T00:13:56.189Z,6.72
2022-09-25T00:16:26.647Z,9.30
2022-09-25T00:19:12.311Z,5.20
2022-09-25T00:21:40.312Z,6.50
2022-09-25T00:24:10.902Z,5.28
2022-09-25T00:26:42.829Z,4.63
2022-09-25T00:29:16.432Z,8.40
2022-09-25T00:31:44.452Z,4.55
2022-09-25T00:34:13.244Z,6.65
2022-09-25T00:36:41.408Z,4.43
2022-09-25T00:39:09.926Z,6.60
2022-09-25T00:41:37.936Z,5.53
2022-09-25T00:44:52.356Z,5.97
2022-09-25T00:47:24.966Z,7.43
2022-09-25T00:49:54.131Z,7.07
2022-09-25T00:52:23.669Z,10.43
2022-09-25T00:54:54.769Z,7.70
2022-09-25T00:57:26.787Z,7.22
2022-09-25T01:00:00.642Z,11.30
2022-09-25T01:02:31.289Z,5.05
2022-09-25T01:05:02.890Z,11.52
2022-09-25T01:07:32.614Z,9.60
2022-09-25T01:10:02.837Z,8.13
2022-09-25T01:12:31.104Z,7.68
2022-09-25T01:15:00.515Z,11.10
2022-09-25T01:17:36.438Z,8.38
2022-09-25T01:20:15.789Z,8.40
2022-09-25T01:22:59.784Z,6.00
2022-09-25T01:25:40.464Z,6.25
2022-09-25T01:28:21.434Z,4.45
2022-09-25T01:30:55.488Z,6.97
2022-09-25T01:33:28.505Z,11.95
2022-09-25T01:36:02.544Z,6.82
2022-09-25T01:38:35.765Z,7.80
2022-09-25T01:41:10.306Z,7.28
2022-09-25T01:43:41.286Z,5.70
2022-09-25T01:46:15.114Z,5.22
2022-09-25T01:48:45.036Z,9.32
2022-09-25T01:51:20.865Z,4.50
2022-09-25T01:53:55.008Z,5.35
2022-09-25T01:56:33.087Z,7.28
2022-09-25T01:59:06.782Z,7.60
2022-09-25T02:01:41.480Z,8.32
2022-09-25T02:04:13.629Z,6.05
2022-09-25T02:06:45.051Z,7.75
2022-09-25T02:09:17.596Z,7.25
2022-09-25T02:11:50.100Z,7.25
2022-09-25T02:14:22.472Z,6.13
2022-09-25T02:16:55.501Z,8.25
2022-09-25T02:19:41.381Z,6.30
2022-09-25T02:22:14.025Z,4.22
2022-09-25T02:24:49.022Z,5.68
2022-09-25T02:27:18.345Z,9.00
2022-09-25T02:29:46.409Z,7.45
2022-09-25T02:32:18.239Z,4.68
2022-09-25T02:34:46.337Z,5.53
2022-09-25T02:37:15.362Z,5.78
2022-09-25T02:39:47.053Z,5.35
2022-09-25T02:42:26.177Z,7.50
2022-09-25T02:45:34.305Z,4.55
2022-09-25T02:48:12.490Z,6.72
2022-09-25T02:50:47.121Z,5.65
2022-09-25T02:53:19.766Z,3.08
2022-09-25T02:55:52.298Z,13.13
2022-09-25T02:58:24.773Z,5.50
2022-09-25T03:00:56.401Z,7.05
2022-09-25T03:03:27.376Z,12.73
2022-09-25T03:05:58.677Z,9.05
2022-09-25T03:08:42.745Z,8.23
2022-09-25T03:11:12.642Z,11.27
2022-09-25T03:13:41.759Z,7.05
2022-09-25T03:16:15.891Z,8.38
2022-09-25T03:18:46.455Z,8.75
2022-09-25T03:21:14.694Z,6.50
2022-09-25T03:23:42.729Z,8.87
2022-09-25T03:26:11.568Z,6.60
2022-09-25T03:28:39.793Z,6.78
2022-09-25T03:31:11.071Z,7.30
2022-09-25T03:33:40.336Z,4.47
2022-09-25T03:36:14.414Z,7.20
2022-09-25T03:38:43.887Z,5.05
2022-09-25T03:41:13.389Z,5.15
2022-09-25T03:43:43.584Z,8.05
2022-09-25T03:46:13.388Z,6.88
2022-09-25T03:48:42.400Z,5.60
2022-09-25T03:51:12.525Z,5.93
2022-09-25T03:53:41.318Z,7.87
2022-09-25T03:56:12.415Z,7.65
2022-09-25T03:58:41.004Z,7.50
2022-09-25T04:01:11.124Z,4.43
2022-09-25T04:03:40.450Z,6.95
2022-09-25T04:06:11.160Z,6.60
2022-09-25T04:08:39.495Z,7.88
2022-09-25T04:11:07.698Z,3.38
2022-09-25T04:13:37.290Z,6.60
2022-09-25T04:16:08.336Z,6.30
2022-09-25T04:18:36.801Z,5.68
2022-09-25T04:21:07.451Z,5.88
2022-09-25T04:23:38.810Z,7.43
2022-09-25T04:26:07.435Z,5.93
2022-09-25T04:28:35.888Z,7.78
2022-09-25T04:31:04.298Z,6.88
2022-09-25T04:33:47.530Z,7.82
2022-09-25T04:36:16.226Z,6.18
2022-09-25T04:38:45.580Z,4.07
2022-09-25T04:41:14.397Z,5.00
2022-09-25T04:43:43.079Z,5.53
2022-09-25T04:46:18.307Z,5.93
2022-09-25T04:48:51.475Z,4.18
2022-09-25T04:51:19.728Z,6.93
2022-09-25T04:53:49.048Z,4.53
2022-09-25T04:56:17.205Z,6.18
2022-09-25T04:58:47.642Z,6.72
2022-09-25T05:01:17.330Z,7.55
2022-09-25T05:03:45.462Z,5.88
2022-09-25T05:06:13.737Z,5.05
2022-09-25T05:08:41.682Z,5.57
2022-09-25T05:11:11.434Z,5.00
2022-09-25T05:13:39.532Z,4.60
2022-09-25T05:16:07.931Z,4.75
2022-09-25T05:18:36.076Z,6.47
2022-09-25T05:21:05.701Z,4.68
2022-09-25T05:23:33.916Z,5.32
2022-09-25T05:26:02.403Z,4.13
2022-09-25T05:28:33.075Z,4.95
2022-09-25T05:31:03.562Z,4.60
2022-09-25T05:33:32.185Z,6.65
2022-09-25T05:36:02.763Z,8.45
2022-09-25T05:38:32.900Z,3.63
2022-09-25T05:41:04.821Z,3.35
2022-09-25T05:43:35.199Z,7.32
2022-09-25T05:46:04.694Z,8.70
2022-09-25T05:48:34.980Z,4.70
2022-09-25T05:51:04.407Z,3.95
2022-09-25T05:53:34.635Z,4.65
2022-09-25T05:56:05.243Z,4.53
2022-09-25T05:58:36.041Z,5.53
2022-09-25T06:01:06.689Z,9.60
2022-09-25T06:03:35.016Z,4.80
2022-09-25T06:06:03.499Z,9.23
2022-09-25T06:08:32.222Z,11.67
2022-09-25T06:11:01.457Z,7.20
2022-09-25T06:13:32.039Z,5.27
2022-09-25T06:16:02.565Z,6.73
2022-09-25T06:18:30.541Z,3.93
2022-09-25T06:21:02.617Z,8.37
2022-09-25T06:23:31.153Z,3.63
2022-09-25T06:26:02.966Z,3.10
2022-09-25T06:28:31.222Z,8.03
2022-09-25T06:31:02.529Z,6.50
2022-09-25T06:33:31.131Z,4.83
2022-09-25T06:36:00.465Z,8.37
2022-09-25T06:38:28.690Z,3.90
2022-09-25T06:40:59.924Z,3.73
2022-09-25T06:43:29.205Z,5.97
2022-09-25T06:46:03.610Z,6.20
2022-09-25T06:48:32.100Z,5.10
2022-09-25T06:51:01.506Z,6.53
2022-09-25T06:53:29.663Z,12.03
2022-09-25T06:56:00.047Z,6.63
2022-09-25T06:58:30.621Z,5.30
2022-09-25T07:00:59.096Z,6.17
2022-09-25T07:03:45.977Z,7.73
2022-09-25T07:06:15.951Z,7.17
2022-09-25T07:08:44.795Z,9.43
2022-09-25T07:11:15.344Z,10.48
2022-09-25T07:13:43.472Z,8.73
2022-09-25T07:16:14.898Z,12.87
2022-09-25T07:18:44.998Z,8.00
2022-09-25T07:21:14.633Z,9.10
2022-09-25T07:23:43.190Z,8.75
2022-09-25T07:26:13.019Z,9.70
2022-09-25T07:28:42.880Z,7.20
2022-09-25T07:31:19.202Z,10.07
2022-09-25T07:33:49.316Z,11.37
2022-09-25T07:36:20.354Z,9.25
2022-09-25T07:38:50.512Z,8.48
2022-09-25T07:41:19.201Z,11.27
2022-09-25T07:43:47.331Z,8.93
2022-09-25T07:46:15.374Z,8.90
2022-09-25T07:48:43.507Z,7.73
2022-09-25T07:51:14.907Z,7.13
2022-09-25T07:53:43.649Z,8.67
2022-09-25T07:56:12.934Z,8.15
2022-09-25T07:58:42.301Z,7.68
2022-09-25T08:01:13.524Z,13.20
2022-09-25T08:03:41.582Z,69.88
2022-09-25T08:06:13.351Z,80.93
2022-09-25T08:08:42.217Z,75.75
2022-09-25T08:11:12.539Z,104.28
2022-09-25T08:13:41.849Z,99.27
2022-09-25T08:16:13.661Z,81.53
2022-09-25T08:18:42.564Z,96.28
2022-09-25T08:21:14.313Z,31.10
2022-09-25T08:23:47.498Z,33.53
2022-09-25T08:26:16.241Z,34.50
2022-09-25T08:28:44.294Z,39.03
2022-09-25T08:31:14.641Z,45.17
2022-09-25T08:33:46.686Z,53.30
2022-09-25T08:36:17.883Z,59.88
2022-09-25T08:38:46.825Z,66.77
2022-09-25T08:41:18.545Z,69.03
2022-09-25T08:44:01.900Z,73.80
2022-09-25T08:46:56.573Z,74.80
2022-09-25T08:49:27.418Z,76.70
2022-09-25T08:52:01.964Z,77.80
2022-09-25T08:54:32.632Z,75.90
2022-09-25T08:57:05.321Z,77.67
2022-09-25T08:59:36.512Z,76.97
2022-09-25T09:02:13.615Z,78.95
2022-09-25T09:04:46.525Z,77.93
2022-09-25T09:07:28.616Z,82.40
2022-09-25T09:10:04.517Z,82.47
2022-09-25T09:12:38.091Z,82.40
2022-09-25T09:15:17.365Z,84.40
2022-09-25T09:17:45.498Z,85.20
2022-09-25T09:20:18.782Z,83.53
2022-09-25T09:22:52.852Z,88.60
2022-09-25T09:25:31.151Z,84.65
2022-09-25T09:28:23.011Z,87.68
2022-09-25T09:31:00.574Z,89.93
2022-09-25T09:33:43.073Z,89.37
2022-09-25T09:36:18.779Z,89.10
2022-09-25T09:38:58.667Z,87.95
2022-09-25T09:41:36.287Z,89.18
2022-09-25T09:44:23.933Z,86.82
2022-09-25T09:46:59.977Z,88.97
2022-09-25T09:49:35.339Z,90.22
2022-09-25T09:52:09.244Z,93.47
2022-09-25T09:54:45.841Z,91.85
2022-09-25T09:57:22.563Z,87.50
2022-09-25T09:59:55.088Z,88.03
2022-09-25T10:02:33.868Z,87.38
2022-09-25T10:05:07.628Z,85.15
2022-09-25T10:07:39.388Z,85.63
2022-09-25T10:10:15.148Z,87.93
2022-09-25T10:12:47.416Z,89.30
2022-09-25T10:15:23.826Z,93.70
2022-09-25T10:17:52.520Z,90.97
2022-09-25T10:20:22.925Z,90.97
2022-09-25T10:22:56.596Z,88.20
2022-09-25T10:25:38.492Z,89.30
2022-09-25T10:28:24.279Z,89.57
2022-09-25T10:30:53.336Z,86.20
2022-09-25T10:33:24.198Z,88.40
2022-09-25T10:35:54.918Z,87.28
2022-09-25T10:38:37.516Z,88.53
2022-09-25T10:41:12.183Z,88.53
2022-09-25T10:43:53.350Z,89.25
2022-09-25T10:46:43.121Z,87.63
2022-09-25T10:49:33.893Z,89.90
2022-09-25T10:52:05.337Z,89.00
2022-09-25T10:54:33.868Z,89.80
2022-09-25T10:57:17.389Z,86.97
2022-09-25T10:59:50.241Z,86.15
2022-09-25T11:02:34.471Z,82.85
2022-09-25T11:05:03.435Z,83.30
2022-09-25T11:07:33.416Z,85.70
2022-09-25T11:10:01.597Z,85.70
2022-09-25T11:12:30.962Z,83.32
2022-09-25T11:15:02.440Z,80.65
2022-09-25T11:17:33.620Z,83.18
2022-09-25T11:20:20.515Z,86.43
2022-09-25T11:22:53.191Z,88.97
2022-09-25T11:25:26.395Z,85.60
2022-09-25T11:28:00.992Z,81.93
2022-09-25T11:30:44.659Z,80.05
2022-09-25T11:33:17.838Z,81.95
2022-09-25T11:35:54.481Z,82.53
2022-09-25T11:38:49.523Z,87.17
2022-09-25T11:41:24.542Z,88.65
2022-09-25T11:44:08.901Z,87.30
2022-09-25T11:46:44.601Z,91.25
2022-09-25T11:49:24.559Z,88.47
2022-09-25T11:52:30.334Z,87.88
2022-09-25T11:55:27.851Z,87.60
2022-09-25T11:58:09.966Z,86.10
2022-09-25T12:00:45.130Z,89.35
2022-09-25T12:03:36.382Z,86.07
2022-09-25T12:06:49.059Z,89.63
2022-09-25T12:09:33.507Z,86.72
2022-09-25T12:12:08.688Z,85.37
2022-09-25T12:14:45.266Z,75.63
2022-09-25T12:17:22.139Z,73.40
2022-09-25T12:19:56.524Z,85.82
2022-09-25T12:22:31.143Z,86.00
2022-09-25T12:25:08.334Z,83.22
2022-09-25T12:27:47.054Z,79.87
2022-09-25T12:30:21.329Z,78.60
2022-09-25T12:33:03.478Z,80.07
2022-09-25T12:35:43.219Z,79.00
2022-09-25T12:38:20.707Z,84.55
2022-09-25T12:40:55.525Z,86.37
2022-09-25T12:43:28.035Z,82.35
2022-09-25T12:46:01.366Z,85.82
2022-09-25T12:48:39.029Z,86.53
2022-09-25T12:51:11.934Z,90.40
2022-09-25T12:53:45.559Z,88.10
2022-09-25T12:56:18.082Z,79.40
2022-09-25T12:59:02.116Z,85.85
2022-09-25T13:01:39.269Z,85.38
2022-09-25T13:04:48.834Z,78.93
2022-09-25T13:07:23.564Z,79.70
2022-09-25T13:09:51.555Z,78.05
2022-09-25T13:12:29.176Z,76.15
2022-09-25T13:15:01.307Z,78.80
2022-09-25T13:17:31.227Z,78.25
2022-09-25T13:20:34.147Z,77.67
2022-09-25T13:23:09.732Z,77.28
2022-09-25T13:25:43.981Z,76.00
2022-09-25T13:28:20.954Z,78.47
2022-09-25T13:31:09.144Z,76.45
2022-09-25T13:33:49.482Z,77.40
2022-09-25T13:36:40.184Z,79.05
2022-09-25T13:39:39.695Z,77.97
2022-09-25T13:42:14.791Z,81.10
2022-09-25T13:45:07.726Z,81.97
2022-09-25T13:48:01.740Z,84.03
2022-09-25T13:50:43.039Z,84.73
2022-09-25T13:53:28.048Z,84.45
2022-09-25T13:56:19.014Z,80.85
2022-09-25T13:59:20.751Z,78.90
2022-09-25T14:01:51.660Z,82.50
2022-09-25T14:04:33.166Z,82.68
2022-09-25T14:07:14.537Z,82.10
2022-09-25T14:09:47.311Z,82.20
2022-09-25T14:12:26.913Z,80.25
2022-09-25T14:15:00.085Z,83.18
2022-09-25T14:17:32.153Z,82.87
2022-09-25T14:20:03.710Z,82.03
2022-09-25T14:22:39.272Z,80.53
2022-09-25T14:25:31.068Z,84.00
2022-09-25T14:28:01.353Z,80.93
2022-09-25T14:30:30.613Z,130.47
2022-09-25T14:33:38.897Z,18.90
2022-09-25T14:36:19.291Z,18.73
2022-09-25T14:39:00.091Z,18.45
2022-09-25T14:41:44.079Z,18.70
2022-09-25T14:44:29.620Z,18.67
2022-09-25T14:46:58.407Z,18.50
2022-09-25T14:49:30.291Z,18.42
2022-09-25T14:52:02.775Z,20.10
2022-09-25T14:54:35.901Z,19.23
2022-09-25T14:57:06.087Z,19.10
2022-09-25T14:59:42.269Z,19.17
2022-09-25T15:02:23.826Z,19.48
2022-09-25T15:04:52.458Z,19.47
2022-09-25T15:07:24.854Z,18.30
2022-09-25T15:09:55.595Z,18.20
2022-09-25T15:12:27.212Z,18.40
2022-09-25T15:15:05.985Z,21.33
2022-09-25T15:17:44.369Z,18.60
2022-09-25T15:20:16.588Z,18.58
2022-09-25T15:22:49.208Z,18.30
2022-09-25T15:25:25.241Z,19.30
2022-09-25T15:27:53.443Z,19.38
2022-09-25T15:30:23.154Z,20.00
2022-09-25T15:32:59.818Z,19.13
2022-09-25T15:35:30.083Z,19.92
2022-09-25T15:38:09.031Z,18.77
2022-09-25T15:40:37.795Z,19.10
2022-09-25T15:43:13.298Z,19.20
2022-09-25T15:45:46.337Z,19.13
2022-09-25T15:48:28.178Z,19.08
2022-09-25T15:50:57.104Z,19.40
2022-09-25T15:53:30.985Z,19.98
2022-09-25T15:56:06.350Z,19.90
2022-09-25T15:58:43.723Z,20.38
2022-09-25T16:01:33.113Z,20.27
2022-09-25T16:04:20.165Z,20.30
2022-09-25T16:06:49.974Z,19.48
2022-09-25T16:09:36.342Z,19.90
2022-09-25T16:12:22.225Z,20.70
2022-09-25T16:14:51.315Z,18.92
2022-09-25T16:17:32.845Z,18.80
2022-09-25T16:20:03.332Z,18.35
2022-09-25T16:22:38.544Z,18.33
2022-09-25T16:25:19.862Z,18.30
2022-09-25T16:27:48.018Z,17.90
2022-09-25T16:30:22.306Z,17.80
2022-09-25T16:32:54.506Z,18.08
2022-09-25T16:35:40.614Z,19.65
2022-09-25T16:38:29.200Z,17.77
2022-09-25T16:41:05.266Z,18.98
2022-09-25T16:43:36.209Z,17.20
2022-09-25T16:46:13.794Z,17.30
2022-09-25T16:48:46.712Z,17.52
2022-09-25T16:51:22.266Z,17.23
2022-09-25T16:53:53.333Z,24.92
2022-09-25T16:56:25.985Z,17.10
2022-09-25T16:58:54.829Z,22.42
2022-09-25T17:01:24.539Z,18.77
2022-09-25T17:03:55.776Z,17.95
2022-09-25T17:06:26.323Z,16.50
2022-09-25T17:08:55.741Z,16.00
2022-09-25T17:11:23.925Z,15.65
2022-09-25T17:13:52.666Z,15.68
2022-09-25T17:16:23.568Z,14.30
2022-09-25T17:18:55.654Z,14.35
2022-09-25T17:21:26.043Z,14.60
2022-09-25T17:23:57.933Z,14.20
2022-09-25T17:26:26.565Z,12.93
2022-09-25T17:28:54.581Z,12.45
2022-09-25T17:31:23.692Z,12.82
2022-09-25T17:33:53.450Z,11.95
2022-09-25T17:36:21.433Z,12.13
2022-09-25T17:38:49.519Z,11.35
2022-09-25T17:41:23.389Z,11.57
2022-09-25T17:43:52.743Z,10.40
2022-09-25T17:46:21.008Z,11.20
2022-09-25T17:48:54.149Z,12.95
2022-09-25T17:51:25.633Z,10.35
2022-09-25T17:53:54.297Z,10.20
2022-09-25T17:56:22.918Z,9.50
2022-09-25T17:58:51.159Z,8.60
2022-09-25T18:01:22.760Z,7.60
2022-09-25T18:03:51.190Z,7.78
2022-09-25T18:06:20.186Z,7.30
2022-09-25T18:08:50.120Z,8.38
2022-09-25T18:11:18.577Z,5.70
2022-09-25T18:13:47.082Z,4.97
2022-09-25T18:16:18.112Z,4.07
2022-09-25T18:19:04.570Z,3.88
2022-09-25T18:21:52.543Z,3.42
2022-09-25T18:24:21.954Z,3.28
2022-09-25T18:26:52.674Z,2.95
2022-09-25T18:29:21.991Z,2.00
2022-09-25T18:31:50.574Z,2.45
2022-09-25T18:34:21.708Z,1.85
2022-09-25T18:36:50.320Z,2.20
2022-09-25T18:39:20.390Z,1.80
2022-09-25T18:41:50.513Z,2.55
2022-09-25T18:44:19.588Z,1.65
2022-09-25T18:46:47.731Z,2.28
2022-09-25T18:49:15.958Z,1.67
2022-09-25T18:51:44.535Z,1.35
2022-09-25T18:54:13.682Z,2.88
2022-09-25T18:56:42.290Z,1.20
2022-09-25T18:59:11.898Z,1.40
2022-09-25T19:01:41.103Z,0.90
2022-09-25T19:04:09.977Z,0.90
2022-09-25T19:06:38.022Z,0.80
2022-09-25T19:09:06.182Z,0.80
2022-09-25T19:11:36.870Z,1.25
2022-09-25T19:14:07.049Z,0.88
2022-09-25T19:16:38.488Z,0.60
2022-09-25T19:19:07.601Z,1.35
2022-09-25T19:21:35.853Z,2.72
2022-09-25T19:24:04.674Z,0.43
2022-09-25T19:26:32.749Z,0.30
2022-09-25T19:29:01.799Z,0.50
2022-09-25T19:31:30.443Z,0.93
2022-09-25T19:34:02.404Z,1.17
2022-09-25T19:36:32.915Z,0.55
2022-09-25T19:39:01.929Z,4.05
2022-09-25T19:41:31.309Z,1.42
2022-09-25T19:44:02.397Z,2.20
2022-09-25T19:46:32.053Z,1.50
2022-09-25T19:49:02.119Z,4.03
2022-09-25T19:51:30.382Z,1.55
2022-09-25T19:53:58.402Z,3.75
2022-09-25T19:56:26.961Z,2.55
2022-09-25T19:58:55.521Z,2.25
2022-09-25T20:01:26.135Z,3.20
2022-09-25T20:03:55.636Z,1.27
2022-09-25T20:06:25.936Z,1.90
2022-09-25T20:08:58.351Z,2.30
2022-09-25T20:11:26.959Z,1.45
2022-09-25T20:13:56.574Z,1.90
2022-09-25T20:16:27.801Z,2.83
2022-09-25T20:18:57.962Z,1.58
2022-09-25T20:21:28.475Z,1.90
2022-09-25T20:23:58.395Z,2.30
2022-09-25T20:26:27.210Z,3.30
2022-09-25T20:28:57.052Z,2.22
2022-09-25T20:31:26.667Z,1.75
2022-09-25T20:33:55.757Z,2.40
2022-09-25T20:36:24.316Z,1.70
2022-09-25T20:38:55.221Z,2.20
2022-09-25T20:41:25.435Z,1.60
2022-09-25T20:43:56.765Z,1.77
2022-09-25T20:46:26.585Z,3.40
2022-09-25T20:48:57.993Z,2.75
2022-09-25T20:51:28.575Z,2.20
2022-09-25T20:53:59.988Z,2.28
2022-09-25T20:56:29.276Z,1.40
2022-09-25T20:58:58.568Z,2.42
2022-09-25T21:01:28.406Z,1.63
2022-09-25T21:03:59.368Z,2.17
2022-09-25T21:06:28.760Z,2.30
2022-09-25T21:09:00.914Z,1.70
2022-09-25T21:11:31.248Z,2.13
2022-09-25T21:14:00.606Z,2.87
2022-09-25T21:16:30.911Z,1.40
2022-09-25T21:19:00.859Z,2.83
2022-09-25T21:21:30.293Z,2.37
2022-09-25T21:23:59.807Z,1.60
2022-09-25T21:26:31.938Z,1.15
2022-09-25T21:29:01.656Z,2.22
2022-09-25T21:31:31.615Z,1.87
2022-09-25T21:34:00.791Z,1.50
2022-09-25T21:36:29.901Z,1.60
2022-09-25T21:39:00.829Z,1.80
2022-09-25T21:41:30.992Z,2.45
2022-09-25T21:44:01.431Z,2.25
2022-09-25T21:46:30.446Z,2.10
2022-09-25T21:49:00.205Z,2.20
2022-09-25T21:51:31.713Z,2.50
2022-09-25T21:54:02.045Z,2.20
2022-09-25T21:56:32.398Z,2.10
2022-09-25T21:59:14.550Z,2.20
2022-09-25T22:01:43.159Z,2.20
2022-09-25T22:04:13.987Z,1.90
2022-09-25T22:06:44.660Z,2.55
2022-09-25T22:09:18.298Z,2.30
2022-09-25T22:11:47.992Z,2.00
2022-09-25T22:14:16.937Z,3.35
2022-09-25T22:16:47.723Z,2.25
2022-09-25T22:19:17.913Z,1.97
2022-09-25T22:21:50.404Z,1.67
2022-09-25T22:24:20.324Z,1.40
2022-09-25T22:26:49.576Z,2.25
2022-09-25T22:29:19.442Z,1.80
2022-09-25T22:31:47.836Z,1.80
2022-09-25T22:34:19.980Z,1.95
2022-09-25T22:36:48.747Z,1.63
2022-09-25T22:39:20.263Z,1.60
2022-09-25T22:41:51.360Z,3.20
2022-09-25T22:44:19.936Z,1.80
2022-09-25T22:46:48.375Z,1.70
2022-09-25T22:49:16.501Z,1.80
2022-09-25T22:51:44.821Z,1.40
2022-09-25T22:54:13.786Z,2.85
2022-09-25T22:56:44.355Z,2.03
2022-09-25T22:59:16.205Z,2.00
2022-09-25T23:01:46.581Z,2.08
2022-09-25T23:04:16.417Z,3.00
2022-09-25T23:06:44.666Z,2.30
2022-09-25T23:09:17.248Z,1.60
2022-09-25T23:11:46.671Z,2.13
2022-09-25T23:14:17.502Z,1.80
2022-09-25T23:16:46.711Z,3.20
2022-09-25T23:19:22.242Z,2.13
2022-09-25T23:21:53.095Z,1.40
2022-09-25T23:24:22.241Z,1.40
2022-09-25T23:26:51.719Z,1.30
2022-09-25T23:29:21.334Z,1.60
2022-09-25T23:31:50.208Z,1.20
2022-09-25T23:34:18.599Z,1.45
2022-09-25T23:36:46.816Z,1.45
2022-09-25T23:39:18.137Z,1.38
2022-09-25T23:41:46.437Z,1.70
2022-09-25T23:44:15.877Z,1.58
2022-09-25T23:46:45.311Z,1.63
2022-09-25T23:49:13.562Z,2.10
2022-09-25T23:51:42.114Z,1.80
2022-09-25T23:54:12.225Z,1.60
2022-09-25T23:56:41.291Z,1.50
2022-09-25T23:59:10.840Z,1.60
